sensor_id;sensor_type;location;lat;lon;timestamp;P1;durP1;ratioP1;P2;durP2;ratioP2
11817;SDS011;5966;52.402;5.322;2023-03-31T00:02:29;19.47;;;3.73;;
11817;SDS011;5966;52.402;5.322;2023-03-31T00:04:57;11.63;;;3.10;;
11817;SDS011;5966;52.402;5.322;2023-03-31T00:07:26;15.20;;;3.67;;
11817;SDS011;5966;52.402;5.322;2023-03-31T00:09:54;12.93;;;3.07;;
11817;SDS011;5966;52.402;5.322;2023-03-31T00:12:42;16.20;;;3.53;;
11817;SDS011;5966;52.402;5.322;2023-03-31T00:15:10;12.77;;;3.60;;
11817;SDS011;5966;52.402;5.322;2023-03-31T00:17:39;13.53;;;3.77;;
11817;SDS011;5966;52.402;5.322;2023-03-31T00:20:09;18.67;;;4.13;;
11817;SDS011;5966;52.402;5.322;2023-03-31T00:22:38;11.23;;;3.03;;
11817;SDS011;5966;52.402;5.322;2023-03-31T00:25:31;12.37;;;3.57;;
11817;SDS011;5966;52.402;5.322;2023-03-31T00:28:00;14.20;;;3.37;;
11817;SDS011;5966;52.402;5.322;2023-03-31T00:30:28;12.93;;;3.47;;
11817;SDS011;5966;52.402;5.322;2023-03-31T00:32:57;12.67;;;3.10;;
11817;SDS011;5966;52.402;5.322;2023-03-31T00:35:25;14.77;;;3.10;;
11817;SDS011;5966;52.402;5.322;2023-03-31T00:37:53;9.13;;;3.00;;
11817;SDS011;5966;52.402;5.322;2023-03-31T00:40:23;9.20;;;2.80;;
11817;SDS011;5966;52.402;5.322;2023-03-31T00:42:52;12.23;;;3.37;;
11817;SDS011;5966;52.402;5.322;2023-03-31T00:45:27;11.27;;;2.60;;
11817;SDS011;5966;52.402;5.322;2023-03-31T00:48:00;12.60;;;3.10;;
11817;SDS011;5966;52.402;5.322;2023-03-31T00:50:36;11.77;;;3.00;;
11817;SDS011;5966;52.402;5.322;2023-03-31T00:53:11;13.40;;;3.00;;
11817;SDS011;5966;52.402;5.322;2023-03-31T00:55:42;11.97;;;3.00;;
11817;SDS011;5966;52.402;5.322;2023-03-31T00:58:12;9.00;;;2.87;;
11817;SDS011;5966;52.402;5.322;2023-03-31T01:00:45;10.47;;;3.23;;
11817;SDS011;5966;52.402;5.322;2023-03-31T01:03:15;9.07;;;2.73;;
11817;SDS011;5966;52.402;5.322;2023-03-31T01:05:49;10.17;;;2.70;;
11817;SDS011;5966;52.402;5.322;2023-03-31T01:08:20;9.27;;;2.70;;
11817;SDS011;5966;52.402;5.322;2023-03-31T01:10:53;10.00;;;2.50;;
11817;SDS011;5966;52.402;5.322;2023-03-31T01:13:23;12.27;;;3.00;;
11817;SDS011;5966;52.402;5.322;2023-03-31T01:15:52;9.87;;;2.70;;
11817;SDS011;5966;52.402;5.322;2023-03-31T01:18:24;9.97;;;2.90;;
11817;SDS011;5966;52.402;5.322;2023-03-31T01:21:06;8.20;;;2.97;;
11817;SDS011;5966;52.402;5.322;2023-03-31T01:30:31;7.27;;;2.53;;
11817;SDS011;5966;52.402;5.322;2023-03-31T01:36:35;8.07;;;2.43;;
11817;SDS011;5966;52.402;5.322;2023-03-31T01:42:35;8.40;;;2.77;;
11817;SDS011;5966;52.402;5.322;2023-03-31T01:45:08;7.00;;;2.50;;
11817;SDS011;5966;52.402;5.322;2023-03-31T01:47:44;7.90;;;2.60;;
11817;SDS011;5966;52.402;5.322;2023-03-31T01:50:17;8.33;;;2.20;;
11817;SDS011;5966;52.402;5.322;2023-03-31T01:52:51;10.67;;;2.43;;
11817;SDS011;5966;52.402;5.322;2023-03-31T01:55:27;7.83;;;2.20;;
11817;SDS011;5966;52.402;5.322;2023-03-31T01:58:02;7.83;;;2.37;;
11817;SDS011;5966;52.402;5.322;2023-03-31T02:00:35;7.30;;;2.30;;
11817;SDS011;5966;52.402;5.322;2023-03-31T02:03:08;6.87;;;2.00;;
11817;SDS011;5966;52.402;5.322;2023-03-31T02:05:43;7.57;;;2.27;;
11817;SDS011;5966;52.402;5.322;2023-03-31T02:08:15;5.23;;;2.13;;
11817;SDS011;5966;52.402;5.322;2023-03-31T02:10:49;6.93;;;2.20;;
11817;SDS011;5966;52.402;5.322;2023-03-31T02:13:25;10.07;;;2.27;;
11817;SDS011;5966;52.402;5.322;2023-03-31T02:15:56;4.67;;;1.97;;
11817;SDS011;5966;52.402;5.322;2023-03-31T02:18:38;6.90;;;2.60;;
11817;SDS011;5966;52.402;5.322;2023-03-31T02:21:07;5.90;;;2.20;;
11817;SDS011;5966;52.402;5.322;2023-03-31T02:23:39;7.90;;;2.27;;
11817;SDS011;5966;52.402;5.322;2023-03-31T02:26:19;9.13;;;2.40;;
11817;SDS011;5966;52.402;5.322;2023-03-31T02:28:52;7.40;;;2.80;;
11817;SDS011;5966;52.402;5.322;2023-03-31T02:31:22;8.73;;;3.30;;
11817;SDS011;5966;52.402;5.322;2023-03-31T02:33:55;9.03;;;2.67;;
11817;SDS011;5966;52.402;5.322;2023-03-31T02:36:23;7.97;;;3.10;;
11817;SDS011;5966;52.402;5.322;2023-03-31T02:38:52;4.50;;;2.53;;
11817;SDS011;5966;52.402;5.322;2023-03-31T02:41:25;7.83;;;2.97;;
11817;SDS011;5966;52.402;5.322;2023-03-31T02:43:52;6.60;;;2.93;;
11817;SDS011;5966;52.402;5.322;2023-03-31T02:46:21;8.93;;;3.13;;
11817;SDS011;5966;52.402;5.322;2023-03-31T02:48:49;6.27;;;2.90;;
11817;SDS011;5966;52.402;5.322;2023-03-31T02:54:38;9.07;;;2.80;;
11817;SDS011;5966;52.402;5.322;2023-03-31T02:57:42;6.37;;;2.87;;
11817;SDS011;5966;52.402;5.322;2023-03-31T03:00:32;9.13;;;3.07;;
11817;SDS011;5966;52.402;5.322;2023-03-31T03:03:12;9.90;;;3.30;;
11817;SDS011;5966;52.402;5.322;2023-03-31T03:05:49;10.30;;;3.40;;
11817;SDS011;5966;52.402;5.322;2023-03-31T03:08:26;7.20;;;3.30;;
11817;SDS011;5966;52.402;5.322;2023-03-31T03:11:01;8.50;;;3.00;;
11817;SDS011;5966;52.402;5.322;2023-03-31T03:13:39;6.27;;;3.07;;
11817;SDS011;5966;52.402;5.322;2023-03-31T03:16:14;6.07;;;2.50;;
11817;SDS011;5966;52.402;5.322;2023-03-31T03:18:51;4.70;;;2.37;;
11817;SDS011;5966;52.402;5.322;2023-03-31T03:21:23;8.33;;;2.80;;
11817;SDS011;5966;52.402;5.322;2023-03-31T03:23:51;5.47;;;2.10;;
11817;SDS011;5966;52.402;5.322;2023-03-31T03:26:20;3.73;;;2.60;;
11817;SDS011;5966;52.402;5.322;2023-03-31T03:28:50;6.77;;;2.27;;
11817;SDS011;5966;52.402;5.322;2023-03-31T03:31:18;5.67;;;2.30;;
11817;SDS011;5966;52.402;5.322;2023-03-31T03:33:49;5.53;;;2.73;;
11817;SDS011;5966;52.402;5.322;2023-03-31T03:36:17;6.27;;;2.60;;
11817;SDS011;5966;52.402;5.322;2023-03-31T03:38:46;7.57;;;3.40;;
11817;SDS011;5966;52.402;5.322;2023-03-31T03:41:14;6.17;;;2.60;;
11817;SDS011;5966;52.402;5.322;2023-03-31T03:43:42;8.93;;;3.43;;
11817;SDS011;5966;52.402;5.322;2023-03-31T03:46:11;5.33;;;3.07;;
11817;SDS011;5966;52.402;5.322;2023-03-31T03:48:39;7.80;;;3.80;;
11817;SDS011;5966;52.402;5.322;2023-03-31T03:51:07;8.63;;;3.30;;
11817;SDS011;5966;52.402;5.322;2023-03-31T03:53:35;6.97;;;3.10;;
11817;SDS011;5966;52.402;5.322;2023-03-31T03:56:04;9.63;;;3.53;;
11817;SDS011;5966;52.402;5.322;2023-03-31T03:58:32;6.47;;;3.07;;
11817;SDS011;5966;52.402;5.322;2023-03-31T04:01:01;7.50;;;3.20;;
11817;SDS011;5966;52.402;5.322;2023-03-31T04:03:34;8.50;;;3.47;;
11817;SDS011;5966;52.402;5.322;2023-03-31T04:06:27;6.97;;;3.17;;
11817;SDS011;5966;52.402;5.322;2023-03-31T04:08:56;7.20;;;2.77;;
11817;SDS011;5966;52.402;5.322;2023-03-31T04:11:30;6.93;;;3.00;;
11817;SDS011;5966;52.402;5.322;2023-03-31T04:13:58;7.13;;;2.47;;
11817;SDS011;5966;52.402;5.322;2023-03-31T04:16:26;8.37;;;2.43;;
11817;SDS011;5966;52.402;5.322;2023-03-31T04:18:57;4.60;;;2.13;;
11817;SDS011;5966;52.402;5.322;2023-03-31T04:21:30;6.77;;;2.50;;
11817;SDS011;5966;52.402;5.322;2023-03-31T04:24:00;7.23;;;2.13;;
11817;SDS011;5966;52.402;5.322;2023-03-31T04:26:31;6.83;;;2.57;;
11817;SDS011;5966;52.402;5.322;2023-03-31T04:29:08;6.20;;;2.47;;
11817;SDS011;5966;52.402;5.322;2023-03-31T04:31:38;4.53;;;2.13;;
11817;SDS011;5966;52.402;5.322;2023-03-31T04:34:10;6.00;;;2.40;;
11817;SDS011;5966;52.402;5.322;2023-03-31T04:36:39;4.60;;;1.80;;
11817;SDS011;5966;52.402;5.322;2023-03-31T04:39:13;4.90;;;1.87;;
11817;SDS011;5966;52.402;5.322;2023-03-31T04:41:41;8.17;;;2.50;;
11817;SDS011;5966;52.402;5.322;2023-03-31T04:44:09;5.03;;;2.23;;
11817;SDS011;5966;52.402;5.322;2023-03-31T04:46:37;5.30;;;2.23;;
11817;SDS011;5966;52.402;5.322;2023-03-31T04:49:05;6.23;;;1.70;;
11817;SDS011;5966;52.402;5.322;2023-03-31T04:51:40;6.57;;;1.90;;
11817;SDS011;5966;52.402;5.322;2023-03-31T04:54:08;3.13;;;1.40;;
11817;SDS011;5966;52.402;5.322;2023-03-31T04:56:38;4.57;;;1.53;;
11817;SDS011;5966;52.402;5.322;2023-03-31T04:59:08;6.00;;;1.80;;
11817;SDS011;5966;52.402;5.322;2023-03-31T05:02:40;4.87;;;1.73;;
11817;SDS011;5966;52.402;5.322;2023-03-31T05:05:08;5.90;;;1.87;;
11817;SDS011;5966;52.402;5.322;2023-03-31T05:07:39;4.63;;;1.90;;
11817;SDS011;5966;52.402;5.322;2023-03-31T05:10:07;7.73;;;1.63;;
11817;SDS011;5966;52.402;5.322;2023-03-31T05:12:36;4.57;;;1.50;;
11817;SDS011;5966;52.402;5.322;2023-03-31T05:15:05;4.77;;;1.60;;
11817;SDS011;5966;52.402;5.322;2023-03-31T05:17:37;5.27;;;2.13;;
11817;SDS011;5966;52.402;5.322;2023-03-31T05:20:07;4.37;;;2.00;;
11817;SDS011;5966;52.402;5.322;2023-03-31T05:22:40;3.93;;;1.27;;
11817;SDS011;5966;52.402;5.322;2023-03-31T05:25:13;3.60;;;1.57;;
11817;SDS011;5966;52.402;5.322;2023-03-31T05:28:23;3.70;;;1.20;;
11817;SDS011;5966;52.402;5.322;2023-03-31T05:30:51;4.87;;;1.70;;
11817;SDS011;5966;52.402;5.322;2023-03-31T05:33:19;5.23;;;1.70;;
11817;SDS011;5966;52.402;5.322;2023-03-31T05:35:47;4.77;;;1.60;;
11817;SDS011;5966;52.402;5.322;2023-03-31T05:38:16;7.80;;;1.80;;
11817;SDS011;5966;52.402;5.322;2023-03-31T05:40:44;3.90;;;1.40;;
11817;SDS011;5966;52.402;5.322;2023-03-31T05:43:12;3.57;;;1.73;;
11817;SDS011;5966;52.402;5.322;2023-03-31T05:45:40;4.63;;;1.90;;
11817;SDS011;5966;52.402;5.322;2023-03-31T05:48:08;3.47;;;1.60;;
11817;SDS011;5966;52.402;5.322;2023-03-31T05:50:36;4.37;;;1.73;;
11817;SDS011;5966;52.402;5.322;2023-03-31T05:53:04;7.87;;;1.93;;
11817;SDS011;5966;52.402;5.322;2023-03-31T05:55:35;4.73;;;1.80;;
11817;SDS011;5966;52.402;5.322;2023-03-31T05:58:04;3.83;;;1.47;;
11817;SDS011;5966;52.402;5.322;2023-03-31T06:00:34;3.77;;;1.80;;
11817;SDS011;5966;52.402;5.322;2023-03-31T06:03:03;5.13;;;1.80;;
11817;SDS011;5966;52.402;5.322;2023-03-31T06:05:33;6.90;;;2.40;;
11817;SDS011;5966;52.402;5.322;2023-03-31T06:08:01;4.70;;;1.93;;
11817;SDS011;5966;52.402;5.322;2023-03-31T06:10:29;4.67;;;1.37;;
11817;SDS011;5966;52.402;5.322;2023-03-31T06:13:02;5.23;;;1.60;;
11817;SDS011;5966;52.402;5.322;2023-03-31T06:15:33;4.87;;;1.80;;
11817;SDS011;5966;52.402;5.322;2023-03-31T06:18:01;3.03;;;1.80;;
11817;SDS011;5966;52.402;5.322;2023-03-31T06:20:32;5.50;;;1.70;;
11817;SDS011;5966;52.402;5.322;2023-03-31T06:23:00;5.17;;;2.20;;
11817;SDS011;5966;52.402;5.322;2023-03-31T06:25:29;4.10;;;1.60;;
11817;SDS011;5966;52.402;5.322;2023-03-31T06:28:16;4.93;;;1.90;;
11817;SDS011;5966;52.402;5.322;2023-03-31T06:31:13;4.83;;;1.80;;
11817;SDS011;5966;52.402;5.322;2023-03-31T06:33:43;4.70;;;1.50;;
11817;SDS011;5966;52.402;5.322;2023-03-31T06:36:12;3.90;;;1.70;;
11817;SDS011;5966;52.402;5.322;2023-03-31T06:38:43;5.97;;;2.00;;
11817;SDS011;5966;52.402;5.322;2023-03-31T06:41:17;4.17;;;1.63;;
11817;SDS011;5966;52.402;5.322;2023-03-31T06:43:51;5.10;;;1.60;;
11817;SDS011;5966;52.402;5.322;2023-03-31T06:46:21;3.30;;;1.50;;
11817;SDS011;5966;52.402;5.322;2023-03-31T06:48:51;4.70;;;1.57;;
11817;SDS011;5966;52.402;5.322;2023-03-31T06:51:22;4.23;;;1.53;;
11817;SDS011;5966;52.402;5.322;2023-03-31T06:53:50;4.27;;;1.80;;
11817;SDS011;5966;52.402;5.322;2023-03-31T06:56:18;4.60;;;1.60;;
11817;SDS011;5966;52.402;5.322;2023-03-31T06:58:50;5.80;;;1.53;;
11817;SDS011;5966;52.402;5.322;2023-03-31T07:01:18;7.33;;;1.60;;
11817;SDS011;5966;52.402;5.322;2023-03-31T07:03:49;3.83;;;1.40;;
11817;SDS011;5966;52.402;5.322;2023-03-31T07:06:17;2.87;;;1.10;;
11817;SDS011;5966;52.402;5.322;2023-03-31T07:08:45;5.40;;;2.00;;
11817;SDS011;5966;52.402;5.322;2023-03-31T07:11:13;3.80;;;1.50;;
11817;SDS011;5966;52.402;5.322;2023-03-31T07:13:41;4.97;;;1.60;;
11817;SDS011;5966;52.402;5.322;2023-03-31T07:16:11;3.17;;;1.10;;
11817;SDS011;5966;52.402;5.322;2023-03-31T07:18:39;5.03;;;1.90;;
11817;SDS011;5966;52.402;5.322;2023-03-31T07:21:08;4.17;;;1.83;;
11817;SDS011;5966;52.402;5.322;2023-03-31T07:23:36;3.93;;;1.60;;
11817;SDS011;5966;52.402;5.322;2023-03-31T07:26:04;7.57;;;1.77;;
11817;SDS011;5966;52.402;5.322;2023-03-31T07:28:35;4.73;;;1.60;;
11817;SDS011;5966;52.402;5.322;2023-03-31T07:31:25;3.27;;;1.70;;
11817;SDS011;5966;52.402;5.322;2023-03-31T07:33:55;4.67;;;1.50;;
11817;SDS011;5966;52.402;5.322;2023-03-31T07:36:23;3.23;;;1.37;;
11817;SDS011;5966;52.402;5.322;2023-03-31T07:38:51;3.77;;;1.70;;
11817;SDS011;5966;52.402;5.322;2023-03-31T07:44:02;2.83;;;1.47;;
11817;SDS011;5966;52.402;5.322;2023-03-31T07:46:34;2.77;;;0.90;;
11817;SDS011;5966;52.402;5.322;2023-03-31T07:49:12;4.00;;;1.50;;
11817;SDS011;5966;52.402;5.322;2023-03-31T07:51:41;3.03;;;1.43;;
11817;SDS011;5966;52.402;5.322;2023-03-31T07:54:09;2.83;;;1.40;;
11817;SDS011;5966;52.402;5.322;2023-03-31T07:56:38;3.43;;;1.30;;
11817;SDS011;5966;52.402;5.322;2023-03-31T07:59:06;3.00;;;1.10;;
11817;SDS011;5966;52.402;5.322;2023-03-31T08:01:36;4.47;;;1.27;;
11817;SDS011;5966;52.402;5.322;2023-03-31T08:04:10;4.30;;;1.50;;
11817;SDS011;5966;52.402;5.322;2023-03-31T08:06:39;3.13;;;1.30;;
11817;SDS011;5966;52.402;5.322;2023-03-31T08:09:08;3.23;;;1.50;;
11817;SDS011;5966;52.402;5.322;2023-03-31T08:11:37;3.57;;;1.23;;
11817;SDS011;5966;52.402;5.322;2023-03-31T08:14:05;3.80;;;1.13;;
11817;SDS011;5966;52.402;5.322;2023-03-31T08:16:36;2.13;;;1.20;;
11817;SDS011;5966;52.402;5.322;2023-03-31T08:19:21;3.77;;;1.23;;
11817;SDS011;5966;52.402;5.322;2023-03-31T08:21:49;3.73;;;1.23;;
11817;SDS011;5966;52.402;5.322;2023-03-31T08:24:17;4.37;;;1.20;;
11817;SDS011;5966;52.402;5.322;2023-03-31T08:26:50;2.83;;;1.10;;
11817;SDS011;5966;52.402;5.322;2023-03-31T08:29:22;3.43;;;1.20;;
11817;SDS011;5966;52.402;5.322;2023-03-31T08:31:59;3.60;;;1.57;;
11817;SDS011;5966;52.402;5.322;2023-03-31T08:34:33;3.80;;;1.43;;
11817;SDS011;5966;52.402;5.322;2023-03-31T08:37:04;4.10;;;1.43;;
11817;SDS011;5966;52.402;5.322;2023-03-31T08:39:34;3.57;;;1.50;;
11817;SDS011;5966;52.402;5.322;2023-03-31T08:42:04;5.83;;;2.13;;
11817;SDS011;5966;52.402;5.322;2023-03-31T08:44:43;3.60;;;1.60;;
11817;SDS011;5966;52.402;5.322;2023-03-31T08:47:23;3.57;;;1.57;;
11817;SDS011;5966;52.402;5.322;2023-03-31T08:49:59;5.73;;;1.73;;
11817;SDS011;5966;52.402;5.322;2023-03-31T08:52:35;7.10;;;2.17;;
11817;SDS011;5966;52.402;5.322;2023-03-31T08:55:09;3.30;;;1.60;;
11817;SDS011;5966;52.402;5.322;2023-03-31T08:57:49;4.83;;;2.17;;
11817;SDS011;5966;52.402;5.322;2023-03-31T09:00:24;6.73;;;2.10;;
11817;SDS011;5966;52.402;5.322;2023-03-31T09:02:58;5.83;;;2.37;;
11817;SDS011;5966;52.402;5.322;2023-03-31T09:08:34;5.47;;;1.60;;
11817;SDS011;5966;52.402;5.322;2023-03-31T09:11:10;5.90;;;2.10;;
11817;SDS011;5966;52.402;5.322;2023-03-31T09:13:46;7.07;;;2.33;;
11817;SDS011;5966;52.402;5.322;2023-03-31T09:16:34;4.70;;;1.87;;
11817;SDS011;5966;52.402;5.322;2023-03-31T09:21:56;5.30;;;1.90;;
11817;SDS011;5966;52.402;5.322;2023-03-31T09:24:26;6.97;;;2.17;;
11817;SDS011;5966;52.402;5.322;2023-03-31T09:27:02;6.77;;;2.23;;
11817;SDS011;5966;52.402;5.322;2023-03-31T09:29:36;3.80;;;2.03;;
11817;SDS011;5966;52.402;5.322;2023-03-31T09:32:27;4.47;;;2.10;;
11817;SDS011;5966;52.402;5.322;2023-03-31T09:34:58;3.87;;;1.83;;
11817;SDS011;5966;52.402;5.322;2023-03-31T09:37:29;5.60;;;1.90;;
11817;SDS011;5966;52.402;5.322;2023-03-31T09:39:59;4.37;;;1.90;;
11817;SDS011;5966;52.402;5.322;2023-03-31T09:42:32;4.97;;;1.80;;
11817;SDS011;5966;52.402;5.322;2023-03-31T09:45:03;5.13;;;1.80;;
11817;SDS011;5966;52.402;5.322;2023-03-31T09:47:36;6.03;;;1.60;;
11817;SDS011;5966;52.402;5.322;2023-03-31T09:50:10;4.47;;;1.67;;
11817;SDS011;5966;52.402;5.322;2023-03-31T09:52:42;5.23;;;2.00;;
11817;SDS011;5966;52.402;5.322;2023-03-31T09:55:15;6.90;;;1.80;;
11817;SDS011;5966;52.402;5.322;2023-03-31T09:58:05;5.03;;;2.17;;
11817;SDS011;5966;52.402;5.322;2023-03-31T10:00:39;7.33;;;2.60;;
11817;SDS011;5966;52.402;5.322;2023-03-31T10:03:10;4.43;;;2.00;;
11817;SDS011;5966;52.402;5.322;2023-03-31T10:05:49;8.97;;;2.53;;
11817;SDS011;5966;52.402;5.322;2023-03-31T10:08:26;5.80;;;2.03;;
11817;SDS011;5966;52.402;5.322;2023-03-31T10:11:05;5.87;;;2.47;;
11817;SDS011;5966;52.402;5.322;2023-03-31T10:13:37;7.83;;;2.20;;
11817;SDS011;5966;52.402;5.322;2023-03-31T10:16:13;10.60;;;2.70;;
11817;SDS011;5966;52.402;5.322;2023-03-31T10:18:52;10.07;;;3.00;;
11817;SDS011;5966;52.402;5.322;2023-03-31T10:21:22;5.53;;;2.20;;
11817;SDS011;5966;52.402;5.322;2023-03-31T10:23:54;8.23;;;2.03;;
11817;SDS011;5966;52.402;5.322;2023-03-31T10:26:37;12.80;;;3.30;;
11817;SDS011;5966;52.402;5.322;2023-03-31T10:29:09;6.47;;;2.27;;
11817;SDS011;5966;52.402;5.322;2023-03-31T10:31:39;9.47;;;2.27;;
11817;SDS011;5966;52.402;5.322;2023-03-31T10:34:08;8.90;;;2.13;;
11817;SDS011;5966;52.402;5.322;2023-03-31T10:36:46;6.47;;;2.37;;
11817;SDS011;5966;52.402;5.322;2023-03-31T10:39:16;5.90;;;2.17;;
11817;SDS011;5966;52.402;5.322;2023-03-31T10:41:48;8.30;;;2.27;;
11817;SDS011;5966;52.402;5.322;2023-03-31T10:44:36;8.73;;;2.43;;
11817;SDS011;5966;52.402;5.322;2023-03-31T10:47:16;5.87;;;2.00;;
11817;SDS011;5966;52.402;5.322;2023-03-31T10:49:47;7.90;;;2.40;;
11817;SDS011;5966;52.402;5.322;2023-03-31T10:52:34;8.87;;;2.40;;
11817;SDS011;5966;52.402;5.322;2023-03-31T10:55:13;6.37;;;2.70;;
11817;SDS011;5966;52.402;5.322;2023-03-31T10:57:49;9.60;;;2.83;;
11817;SDS011;5966;52.402;5.322;2023-03-31T11:00:26;9.93;;;2.57;;
11817;SDS011;5966;52.402;5.322;2023-03-31T11:03:02;9.20;;;2.47;;
11817;SDS011;5966;52.402;5.322;2023-03-31T11:05:59;8.90;;;2.30;;
11817;SDS011;5966;52.402;5.322;2023-03-31T11:08:40;7.77;;;2.23;;
11817;SDS011;5966;52.402;5.322;2023-03-31T11:11:19;6.67;;;2.20;;
11817;SDS011;5966;52.402;5.322;2023-03-31T11:14:00;7.33;;;2.37;;
11817;SDS011;5966;52.402;5.322;2023-03-31T11:16:37;8.90;;;2.10;;
11817;SDS011;5966;52.402;5.322;2023-03-31T11:19:18;5.90;;;2.00;;
11817;SDS011;5966;52.402;5.322;2023-03-31T11:21:57;6.57;;;2.27;;
11817;SDS011;5966;52.402;5.322;2023-03-31T11:24:38;9.63;;;2.40;;
11817;SDS011;5966;52.402;5.322;2023-03-31T11:27:22;4.70;;;1.73;;
11817;SDS011;5966;52.402;5.322;2023-03-31T11:30:04;6.87;;;2.67;;
11817;SDS011;5966;52.402;5.322;2023-03-31T11:32:46;5.00;;;1.97;;
11817;SDS011;5966;52.402;5.322;2023-03-31T11:35:22;5.97;;;1.80;;
11817;SDS011;5966;52.402;5.322;2023-03-31T11:38:15;6.87;;;2.13;;
11817;SDS011;5966;52.402;5.322;2023-03-31T11:40:59;5.77;;;2.00;;
11817;SDS011;5966;52.402;5.322;2023-03-31T11:43:33;6.77;;;2.10;;
11817;SDS011;5966;52.402;5.322;2023-03-31T11:46:10;8.00;;;2.03;;
11817;SDS011;5966;52.402;5.322;2023-03-31T11:48:45;6.67;;;2.17;;
11817;SDS011;5966;52.402;5.322;2023-03-31T11:51:23;6.73;;;2.27;;
11817;SDS011;5966;52.402;5.322;2023-03-31T11:53:58;6.37;;;1.90;;
11817;SDS011;5966;52.402;5.322;2023-03-31T11:56:47;8.30;;;1.97;;
11817;SDS011;5966;52.402;5.322;2023-03-31T11:59:17;7.70;;;2.13;;
11817;SDS011;5966;52.402;5.322;2023-03-31T12:01:50;6.47;;;2.13;;
11817;SDS011;5966;52.402;5.322;2023-03-31T12:04:27;4.87;;;1.80;;
11817;SDS011;5966;52.402;5.322;2023-03-31T12:07:02;8.03;;;1.73;;
11817;SDS011;5966;52.402;5.322;2023-03-31T12:09:37;8.70;;;2.00;;
11817;SDS011;5966;52.402;5.322;2023-03-31T12:12:31;3.60;;;1.63;;
11817;SDS011;5966;52.402;5.322;2023-03-31T12:15:05;4.37;;;1.80;;
11817;SDS011;5966;52.402;5.322;2023-03-31T12:17:42;5.00;;;1.70;;
11817;SDS011;5966;52.402;5.322;2023-03-31T12:20:24;7.97;;;2.13;;
11817;SDS011;5966;52.402;5.322;2023-03-31T12:22:59;4.67;;;1.50;;
11817;SDS011;5966;52.402;5.322;2023-03-31T12:25:34;6.37;;;2.00;;
11817;SDS011;5966;52.402;5.322;2023-03-31T12:28:11;6.77;;;1.97;;
11817;SDS011;5966;52.402;5.322;2023-03-31T12:30:43;4.97;;;1.73;;
11817;SDS011;5966;52.402;5.322;2023-03-31T12:33:14;6.63;;;1.97;;
11817;SDS011;5966;52.402;5.322;2023-03-31T12:35:57;5.07;;;1.70;;
11817;SDS011;5966;52.402;5.322;2023-03-31T12:38:49;6.73;;;1.60;;
11817;SDS011;5966;52.402;5.322;2023-03-31T12:41:26;5.93;;;1.33;;
11817;SDS011;5966;52.402;5.322;2023-03-31T12:44:11;5.53;;;1.77;;
11817;SDS011;5966;52.402;5.322;2023-03-31T12:47:04;2.87;;;1.50;;
11817;SDS011;5966;52.402;5.322;2023-03-31T12:49:54;5.20;;;1.17;;
11817;SDS011;5966;52.402;5.322;2023-03-31T12:52:44;1.70;;;1.07;;
11817;SDS011;5966;52.402;5.322;2023-03-31T12:55:22;3.37;;;0.97;;
11817;SDS011;5966;52.402;5.322;2023-03-31T13:01:21;3.37;;;1.30;;
11817;SDS011;5966;52.402;5.322;2023-03-31T13:03:53;4.77;;;1.33;;
11817;SDS011;5966;52.402;5.322;2023-03-31T13:06:52;4.73;;;1.27;;
11817;SDS011;5966;52.402;5.322;2023-03-31T13:12:30;5.37;;;1.40;;
11817;SDS011;5966;52.402;5.322;2023-03-31T13:15:11;4.97;;;1.40;;
11817;SDS011;5966;52.402;5.322;2023-03-31T13:17:58;4.27;;;1.27;;
11817;SDS011;5966;52.402;5.322;2023-03-31T13:20:32;3.57;;;1.30;;
11817;SDS011;5966;52.402;5.322;2023-03-31T13:23:15;2.73;;;1.20;;
11817;SDS011;5966;52.402;5.322;2023-03-31T13:25:51;3.67;;;1.43;;
11817;SDS011;5966;52.402;5.322;2023-03-31T13:28:30;3.07;;;1.30;;
11817;SDS011;5966;52.402;5.322;2023-03-31T13:31:02;6.67;;;1.83;;
11817;SDS011;5966;52.402;5.322;2023-03-31T13:33:34;7.27;;;1.60;;
11817;SDS011;5966;52.402;5.322;2023-03-31T13:39:23;2.87;;;0.97;;
11817;SDS011;5966;52.402;5.322;2023-03-31T13:42:16;5.77;;;1.50;;
11817;SDS011;5966;52.402;5.322;2023-03-31T13:45:06;3.37;;;1.43;;
11817;SDS011;5966;52.402;5.322;2023-03-31T13:47:50;9.00;;;1.73;;
11817;SDS011;5966;52.402;5.322;2023-03-31T13:50:45;5.20;;;1.57;;
11817;SDS011;5966;52.402;5.322;2023-03-31T13:53:35;5.27;;;1.83;;
11817;SDS011;5966;52.402;5.322;2023-03-31T13:56:26;5.07;;;1.87;;
11817;SDS011;5966;52.402;5.322;2023-03-31T13:59:32;2.63;;;1.50;;
11817;SDS011;5966;52.402;5.322;2023-03-31T14:02:27;5.60;;;1.60;;
11817;SDS011;5966;52.402;5.322;2023-03-31T14:08:13;4.50;;;1.50;;
11817;SDS011;5966;52.402;5.322;2023-03-31T14:10:50;6.90;;;2.07;;
11817;SDS011;5966;52.402;5.322;2023-03-31T14:13:23;5.90;;;1.93;;
11817;SDS011;5966;52.402;5.322;2023-03-31T14:15:52;7.00;;;1.97;;
11817;SDS011;5966;52.402;5.322;2023-03-31T14:18:23;3.93;;;1.77;;
11817;SDS011;5966;52.402;5.322;2023-03-31T14:21:03;5.97;;;1.30;;
11817;SDS011;5966;52.402;5.322;2023-03-31T14:23:47;3.93;;;1.20;;
11817;SDS011;5966;52.402;5.322;2023-03-31T14:26:27;4.07;;;1.53;;
11817;SDS011;5966;52.402;5.322;2023-03-31T14:29:07;5.43;;;1.53;;
11817;SDS011;5966;52.402;5.322;2023-03-31T14:31:42;3.03;;;1.30;;
11817;SDS011;5966;52.402;5.322;2023-03-31T14:34:19;4.60;;;1.80;;
11817;SDS011;5966;52.402;5.322;2023-03-31T14:37:05;4.27;;;1.27;;
11817;SDS011;5966;52.402;5.322;2023-03-31T14:39:39;3.93;;;1.50;;
11817;SDS011;5966;52.402;5.322;2023-03-31T14:42:14;5.50;;;1.57;;
11817;SDS011;5966;52.402;5.322;2023-03-31T14:44:54;3.73;;;1.60;;
11817;SDS011;5966;52.402;5.322;2023-03-31T14:47:31;5.23;;;1.70;;
11817;SDS011;5966;52.402;5.322;2023-03-31T14:49:59;2.57;;;1.30;;
11817;SDS011;5966;52.402;5.322;2023-03-31T14:52:31;2.43;;;1.03;;
11817;SDS011;5966;52.402;5.322;2023-03-31T14:55:13;3.43;;;1.47;;
11817;SDS011;5966;52.402;5.322;2023-03-31T14:57:45;4.47;;;1.30;;
11817;SDS011;5966;52.402;5.322;2023-03-31T15:00:17;3.93;;;1.20;;
11817;SDS011;5966;52.402;5.322;2023-03-31T15:02:51;3.70;;;1.60;;
11817;SDS011;5966;52.402;5.322;2023-03-31T15:05:24;2.80;;;1.30;;
11817;SDS011;5966;52.402;5.322;2023-03-31T15:07:56;9.00;;;1.60;;
11817;SDS011;5966;52.402;5.322;2023-03-31T15:10:29;4.70;;;1.73;;
11817;SDS011;5966;52.402;5.322;2023-03-31T15:13:05;2.97;;;1.10;;
11817;SDS011;5966;52.402;5.322;2023-03-31T15:15:35;4.13;;;1.40;;
11817;SDS011;5966;52.402;5.322;2023-03-31T15:18:04;4.30;;;1.20;;
11817;SDS011;5966;52.402;5.322;2023-03-31T15:20:36;2.83;;;0.90;;
11817;SDS011;5966;52.402;5.322;2023-03-31T15:23:17;3.93;;;1.20;;
11817;SDS011;5966;52.402;5.322;2023-03-31T15:25:51;5.73;;;1.27;;
11817;SDS011;5966;52.402;5.322;2023-03-31T15:28:23;2.27;;;1.23;;
11817;SDS011;5966;52.402;5.322;2023-03-31T15:31:03;2.17;;;0.93;;
11817;SDS011;5966;52.402;5.322;2023-03-31T15:33:36;1.90;;;1.20;;
11817;SDS011;5966;52.402;5.322;2023-03-31T15:36:07;2.63;;;1.10;;
11817;SDS011;5966;52.402;5.322;2023-03-31T15:38:37;2.13;;;0.57;;
11817;SDS011;5966;52.402;5.322;2023-03-31T15:41:11;2.90;;;1.30;;
11817;SDS011;5966;52.402;5.322;2023-03-31T15:43:49;2.63;;;1.40;;
11817;SDS011;5966;52.402;5.322;2023-03-31T15:49:17;2.53;;;1.20;;
11817;SDS011;5966;52.402;5.322;2023-03-31T15:51:51;1.53;;;1.00;;
11817;SDS011;5966;52.402;5.322;2023-03-31T15:54:32;1.87;;;1.30;;
11817;SDS011;5966;52.402;5.322;2023-03-31T16:00:15;2.27;;;1.20;;
11817;SDS011;5966;52.402;5.322;2023-03-31T16:03:13;3.50;;;1.70;;
11817;SDS011;5966;52.402;5.322;2023-03-31T16:05:48;1.80;;;1.20;;
11817;SDS011;5966;52.402;5.322;2023-03-31T16:08:21;2.10;;;1.30;;
11817;SDS011;5966;52.402;5.322;2023-03-31T16:11:00;4.33;;;1.53;;
11817;SDS011;5966;52.402;5.322;2023-03-31T16:13:51;3.47;;;1.07;;
11817;SDS011;5966;52.402;5.322;2023-03-31T16:16:27;2.73;;;1.03;;
11817;SDS011;5966;52.402;5.322;2023-03-31T16:18:59;1.50;;;0.80;;
11817;SDS011;5966;52.402;5.322;2023-03-31T16:21:33;2.10;;;1.10;;
11817;SDS011;5966;52.402;5.322;2023-03-31T16:24:26;4.80;;;1.40;;
11817;SDS011;5966;52.402;5.322;2023-03-31T16:27:53;2.30;;;0.97;;
11817;SDS011;5966;52.402;5.322;2023-03-31T16:30:31;4.67;;;1.40;;
11817;SDS011;5966;52.402;5.322;2023-03-31T16:33:53;3.03;;;1.33;;